Time;durP1;ratioP1;P1;durP2;ratioP2;P2;SDS_P1;SDS_P2;PMS_P1;PMS_P2;Temp;Humidity;BMP_temperature;BMP_pressure;BME280_temperature;BME280_humidity;BME280_pressure;Samples;Min_cycle;Max_cycle;Signal;HPM_P1;HPM_P2
2021/10/18 00:01:25;;;;;;;9.10;8.30;;;11.80;82.60;;;;;;5115517;28;20439;-68
2021/10/18 00:03:52;;;;;;;8.97;8.17;;;11.80;82.40;;;;;;5115170;28;20474;-68
2021/10/18 00:06:19;;;;;;;11.60;9.20;;;11.70;82.10;;;;;;5115472;28;20447;-68
2021/10/18 00:08:45;;;;;;;9.33;8.30;;;11.70;81.90;;;;;;5115124;28;20932;-68
2021/10/18 00:11:12;;;;;;;10.40;8.73;;;11.70;81.90;;;;;;5115404;28;20454;-68
2021/10/18 00:13:39;;;;;;;8.60;7.50;;;11.60;81.70;;;;;;5115262;28;20501;-68
2021/10/18 00:16:06;;;;;;;9.17;8.00;;;11.60;81.60;;;;;;5115305;28;20450;-68
2021/10/18 00:18:34;;;;;;;9.30;7.83;;;11.50;81.50;;;;;;5115206;28;20471;-68
2021/10/18 00:21:01;;;;;;;9.20;7.90;;;11.50;81.40;;;;;;5114885;28;20801;-68
2021/10/18 00:23:28;;;;;;;12.67;8.93;;;11.50;81.20;;;;;;5115124;28;20443;-68
2021/10/18 00:25:54;;;;;;;9.90;8.37;;;11.50;81.00;;;;;;5115071;28;20462;-68
2021/10/18 00:28:22;;;;;;;10.60;8.67;;;11.50;81.20;;;;;;5115027;28;20439;-68
2021/10/18 00:30:48;;;;;;;9.07;7.23;;;11.40;81.20;;;;;;5114712;28;20963;-68
2021/10/18 00:33:16;;;;;;;10.77;9.23;;;11.40;81.20;;;;;;5115004;28;20458;-68
2021/10/18 00:35:44;;;;;;;8.37;7.57;;;11.40;81.00;;;;;;5114469;28;20478;-68
2021/10/18 00:38:11;;;;;;;8.97;8.07;;;11.30;81.20;;;;;;5114912;28;20817;-69
2021/10/18 00:40:38;;;;;;;8.20;7.40;;;11.30;81.00;;;;;;5114890;28;20639;-68
2021/10/18 00:43:05;;;;;;;9.20;7.93;;;11.30;81.00;;;;;;5114790;28;20450;-68
2021/10/18 00:45:33;;;;;;;10.20;8.70;;;11.20;80.80;;;;;;5114708;28;20467;-69
2021/10/18 00:48:00;;;;;;;8.97;8.17;;;11.20;81.20;;;;;;5114661;28;20849;-68
2021/10/18 00:50:27;;;;;;;9.87;6.80;;;11.20;81.60;;;;;;5114911;28;20445;-68
2021/10/18 00:52:55;;;;;;;11.57;10.47;;;11.20;81.90;;;;;;5115130;28;20446;-68
2021/10/18 00:55:22;;;;;;;11.50;9.30;;;11.20;81.60;;;;;;5114513;28;20469;-68
2021/10/18 00:57:51;;;;;;;9.10;8.30;;;11.20;82.70;;;;;;5114537;28;20820;-68
2021/10/18 01:00:18;;;;;;;8.40;7.60;;;11.20;81.80;;;;;;5114095;27;20429;-68
2021/10/18 01:02:45;;;;;;;8.17;7.37;;;11.20;81.10;;;;;;5114696;28;20201;-69
2021/10/18 01:05:12;;;;;;;9.63;7.73;;;11.10;80.40;;;;;;5113979;28;20871;-68
2021/10/18 01:07:39;;;;;;;7.50;6.80;;;11.10;80.10;;;;;;5114382;28;20454;-68
2021/10/18 01:10:08;;;;;;;7.60;6.60;;;11.10;80.00;;;;;;5114006;28;20929;-68
2021/10/18 01:12:35;;;;;;;11.47;8.20;;;11.00;79.60;;;;;;5114332;28;20447;-68
2021/10/18 01:15:02;;;;;;;9.13;8.07;;;10.90;79.50;;;;;;5114229;28;20458;-68
2021/10/18 01:17:28;;;;;;;8.77;7.00;;;10.90;79.50;;;;;;5114305;28;20446;-68
2021/10/18 01:19:55;;;;;;;8.00;7.20;;;10.80;79.40;;;;;;5114206;28;20859;-68
2021/10/18 01:22:24;;;;;;;9.33;7.87;;;10.80;79.50;;;;;;5114164;28;20442;-68
2021/10/18 01:24:50;;;;;;;9.70;8.30;;;10.80;79.70;;;;;;5114053;28;20462;-68
2021/10/18 01:27:17;;;;;;;11.27;7.57;;;10.70;79.70;;;;;;5114085;27;20469;-68
2021/10/18 01:29:44;;;;;;;8.60;7.80;;;10.70;79.80;;;;;;5114094;28;20442;-68
2021/10/18 01:32:11;;;;;;;8.37;7.57;;;10.60;79.80;;;;;;5114098;28;20446;-68
2021/10/18 01:34:38;;;;;;;9.20;8.27;;;10.60;79.90;;;;;;5113840;28;20477;-68
2021/10/18 01:37:06;;;;;;;8.57;7.30;;;10.60;80.10;;;;;;5114089;28;20454;-68
2021/10/18 01:39:34;;;;;;;13.23;7.57;;;10.60;80.30;;;;;;5113905;28;20510;-68
2021/10/18 01:42:01;;;;;;;8.17;7.30;;;10.60;80.20;;;;;;5113631;28;20850;-68
2021/10/18 01:44:28;;;;;;;8.90;8.00;;;10.50;80.00;;;;;;5113595;28;20835;-68
2021/10/18 01:46:55;;;;;;;8.60;7.80;;;10.50;80.00;;;;;;5113661;28;20936;-68
2021/10/18 01:49:21;;;;;;;8.47;6.83;;;10.50;80.00;;;;;;5113890;28;20450;-68
2021/10/18 01:51:48;;;;;;;8.80;7.93;;;10.40;80.00;;;;;;5113919;28;20442;-68
2021/10/18 01:54:15;;;;;;;8.50;7.63;;;10.40;80.00;;;;;;5113769;28;20463;-68
2021/10/18 01:56:43;;;;;;;9.07;8.17;;;10.40;80.10;;;;;;5113507;28;20939;-68
2021/10/18 01:59:10;;;;;;;8.20;7.50;;;10.30;80.00;;;;;;5113703;28;20490;-68
2021/10/18 02:01:37;;;;;;;9.23;8.10;;;10.30;80.20;;;;;;5113801;28;20447;-68
2021/10/18 02:04:03;;;;;;;8.10;7.30;;;10.30;80.10;;;;;;5113723;28;20478;-68
2021/10/18 02:06:30;;;;;;;9.13;7.30;;;10.30;80.10;;;;;;5113837;28;20443;-68
2021/10/18 02:08:57;;;;;;;9.60;8.03;;;10.30;80.30;;;;;;5113797;28;20439;-68
2021/10/18 02:11:24;;;;;;;7.87;7.17;;;10.30;80.60;;;;;;5113784;28;20439;-68
2021/10/18 02:13:52;;;;;;;9.13;7.80;;;10.30;80.70;;;;;;5113588;28;20450;-68
2021/10/18 02:16:19;;;;;;;9.20;8.30;;;10.30;80.90;;;;;;5113364;28;20446;-68
2021/10/18 02:18:47;;;;;;;7.87;7.13;;;10.30;81.20;;;;;;5117533;27;20502;-68
2021/10/18 02:21:13;;;;;;;8.70;7.80;;;10.30;81.70;;;;;;5117519;28;20447;-68
2021/10/18 02:23:40;;;;;;;9.03;7.57;;;10.30;81.60;;;;;;5117508;28;20438;-68
2021/10/18 02:26:07;;;;;;;12.20;8.30;;;10.20;81.30;;;;;;5117500;28;20443;-68
2021/10/18 02:28:33;;;;;;;9.80;8.17;;;10.20;80.90;;;;;;5117429;28;20439;-68
2021/10/18 02:31:02;;;;;;;8.00;7.20;;;10.20;80.70;;;;;;5117674;28;20446;-68
2021/10/18 02:33:28;;;;;;;7.73;6.93;;;10.20;80.70;;;;;;5117239;28;20521;-68
2021/10/18 02:35:55;;;;;;;8.47;7.67;;;10.20;80.70;;;;;;5116978;28;20467;-68
2021/10/18 02:38:22;;;;;;;8.77;7.93;;;10.10;80.50;;;;;;5117625;27;20438;-68
2021/10/18 02:40:48;;;;;;;8.63;7.70;;;10.10;80.60;;;;;;5117320;28;20474;-68
2021/10/18 02:43:15;;;;;;;11.57;8.20;;;10.00;80.30;;;;;;5116855;28;20826;-68
2021/10/18 02:45:42;;;;;;;11.23;8.30;;;10.00;80.30;;;;;;5116747;28;20463;-68
2021/10/18 02:48:12;;;;;;;8.93;8.03;;;10.00;80.50;;;;;;5116797;28;20447;-68
2021/10/18 02:50:39;;;;;;;9.30;8.33;;;10.00;80.60;;;;;;5116694;28;20948;-68
2021/10/18 02:53:06;;;;;;;9.53;8.50;;;9.90;81.70;;;;;;5116700;28;20434;-68
2021/10/18 02:55:33;;;;;;;9.20;8.30;;;9.90;81.60;;;;;;5116772;28;20975;-68
2021/10/18 02:57:59;;;;;;;8.30;7.40;;;9.90;81.60;;;;;;5116961;28;20439;-68
2021/10/18 03:00:26;;;;;;;9.00;8.20;;;9.90;81.60;;;;;;5116844;28;20519;-67
2021/10/18 03:02:53;;;;;;;8.80;7.87;;;9.80;81.70;;;;;;5116559;27;20454;-67
2021/10/18 03:05:22;;;;;;;11.67;7.80;;;9.80;81.90;;;;;;5116670;28;20838;-68
2021/10/18 03:07:51;;;;;;;10.93;8.20;;;9.80;81.80;;;;;;5116655;28;20470;-68
2021/10/18 03:10:18;;;;;;;9.33;8.43;;;9.80;81.70;;;;;;5116627;28;20479;-68
2021/10/18 03:12:45;;;;;;;8.93;8.03;;;9.80;81.60;;;;;;5116595;28;20442;-68
2021/10/18 03:15:13;;;;;;;8.80;7.90;;;9.70;81.30;;;;;;5116501;27;20494;-68
2021/10/18 03:17:39;;;;;;;10.70;9.10;;;9.70;81.30;;;;;;5116567;28;20443;-68
2021/10/18 03:20:08;;;;;;;8.20;7.40;;;9.70;81.30;;;;;;5116088;28;20992;-68
2021/10/18 03:22:37;;;;;;;10.63;8.20;;;9.70;81.50;;;;;;5116387;28;20450;-68
2021/10/18 03:25:04;;;;;;;8.30;7.50;;;9.60;81.40;;;;;;5116283;28;20520;-68
2021/10/18 03:27:31;;;;;;;10.37;7.77;;;9.60;81.20;;;;;;5115912;28;20936;-68
2021/10/18 03:29:58;;;;;;;9.87;7.80;;;9.60;81.20;;;;;;5116263;28;20443;-68
2021/10/18 03:32:25;;;;;;;8.67;7.77;;;9.60;81.40;;;;;;5116258;28;20458;-68
2021/10/18 03:34:51;;;;;;;9.13;8.23;;;9.50;81.20;;;;;;5115934;28;20486;-68
2021/10/18 03:37:18;;;;;;;8.60;7.80;;;9.50;81.10;;;;;;5116434;28;20447;-68
2021/10/18 03:39:46;;;;;;;10.30;8.00;;;9.50;81.10;;;;;;5115668;28;21015;-67
2021/10/18 03:42:13;;;;;;;8.97;7.80;;;9.40;81.20;;;;;;5115724;28;20959;-67
2021/10/18 03:44:39;;;;;;;8.60;7.73;;;9.40;81.10;;;;;;5115952;28;20473;-68
2021/10/18 03:47:06;;;;;;;8.30;7.50;;;9.40;81.20;;;;;;5116023;28;20450;-68
2021/10/18 03:49:33;;;;;;;10.57;8.20;;;9.40;81.40;;;;;;5115880;28;20457;-68
2021/10/18 03:52:00;;;;;;;9.17;7.57;;;9.40;81.70;;;;;;5115913;28;20439;-68
2021/10/18 03:54:27;;;;;;;9.30;8.07;;;9.40;82.10;;;;;;5115973;28;20463;-68
2021/10/18 03:56:55;;;;;;;9.63;8.60;;;9.40;82.40;;;;;;5115756;28;20573;-68
2021/10/18 03:59:21;;;;;;;9.37;8.37;;;9.40;82.50;;;;;;5115644;28;20454;-68
2021/10/18 04:01:49;;;;;;;9.20;8.30;;;9.40;82.60;;;;;;5115645;28;20439;-68
2021/10/18 04:04:16;;;;;;;12.57;9.00;;;9.40;82.80;;;;;;5115516;28;20477;-68
2021/10/18 04:06:42;;;;;;;10.73;8.77;;;9.40;82.90;;;;;;5115571;28;20446;-68
2021/10/18 04:09:09;;;;;;;12.60;9.23;;;9.40;83.10;;;;;;5115783;28;20450;-68
2021/10/18 04:11:39;;;;;;;12.43;8.27;;;9.40;83.30;;;;;;5115503;28;20442;-68
2021/10/18 04:14:07;;;;;;;11.67;8.30;;;9.40;83.10;;;;;;5115018;28;20988;-68
2021/10/18 04:16:34;;;;;;;10.10;8.87;;;9.40;83.10;;;;;;5115367;28;20447;-68
2021/10/18 04:19:02;;;;;;;9.00;7.77;;;9.40;83.10;;;;;;5115319;28;20470;-67
2021/10/18 04:21:29;;;;;;;9.50;8.50;;;9.30;82.90;;;;;;5115456;28;20477;-68
2021/10/18 04:23:55;;;;;;;9.80;8.80;;;9.30;82.90;;;;;;5115161;28;20467;-68
2021/10/18 04:26:23;;;;;;;8.53;7.73;;;9.30;82.60;;;;;;5114886;28;21052;-67
2021/10/18 04:28:49;;;;;;;10.40;8.13;;;9.30;82.60;;;;;;5115077;28;20451;-67
2021/10/18 04:31:18;;;;;;;9.50;8.50;;;9.30;82.50;;;;;;5115001;28;20920;-67
2021/10/18 04:33:44;;;;;;;11.90;9.10;;;9.20;82.40;;;;;;5114826;28;20853;-68
2021/10/18 04:36:11;;;;;;;9.60;8.70;;;9.20;82.50;;;;;;5115020;28;20797;-67
2021/10/18 04:38:38;;;;;;;12.13;10.27;;;9.20;82.70;;;;;;5114957;28;20454;-67
2021/10/18 04:41:05;;;;;;;11.53;9.73;;;9.20;83.00;;;;;;5114239;28;20855;-67
2021/10/18 04:43:31;;;;;;;12.43;9.20;;;9.20;83.20;;;;;;5114846;28;20447;-67
2021/10/18 04:45:58;;;;;;;11.30;10.00;;;9.20;83.70;;;;;;5114396;28;20463;-67
2021/10/18 04:48:26;;;;;;;12.07;9.80;;;9.20;84.10;;;;;;5115299;27;20444;-67
2021/10/18 04:50:53;;;;;;;9.83;8.67;;;9.20;84.30;;;;;;5114977;28;20439;-67
2021/10/18 04:53:20;;;;;;;10.23;8.83;;;9.20;84.40;;;;;;5114974;27;20443;-67
2021/10/18 04:55:46;;;;;;;11.10;9.10;;;9.20;84.60;;;;;;5114595;28;20533;-67
2021/10/18 04:58:13;;;;;;;9.13;8.23;;;9.20;84.70;;;;;;5115434;28;20423;-67
2021/10/18 05:00:44;;;;;;;14.37;8.77;;;9.20;84.80;;;;;;5114477;28;21006;-67
2021/10/18 05:03:11;;;;;;;11.23;9.00;;;9.20;85.00;;;;;;5114551;28;20435;-67
2021/10/18 05:05:40;;;;;;;13.23;8.40;;;9.20;85.30;;;;;;5114381;28;20458;-67
2021/10/18 05:08:08;;;;;;;9.50;8.60;;;9.20;85.70;;;;;;5115238;28;20446;-67
2021/10/18 05:10:36;;;;;;;11.83;8.50;;;9.20;86.00;;;;;;5114371;28;20451;-67
2021/10/18 05:13:04;;;;;;;10.10;8.73;;;9.20;86.30;;;;;;5114341;28;20454;-67
2021/10/18 05:15:31;;;;;;;9.73;8.73;;;9.30;86.50;;;;;;5113845;28;20467;-67
2021/10/18 05:18:00;;;;;;;12.80;9.30;;;9.30;86.60;;;;;;5113956;28;20859;-67
2021/10/18 05:20:27;;;;;;;11.47;8.47;;;9.30;86.60;;;;;;5113816;28;20478;-67
2021/10/18 05:22:55;;;;;;;9.43;8.40;;;9.30;86.60;;;;;;5114129;28;20446;-67
2021/10/18 05:25:23;;;;;;;11.27;8.83;;;9.30;86.70;;;;;;5114039;28;20859;-67
2021/10/18 05:27:50;;;;;;;10.57;8.77;;;9.30;86.80;;;;;;5114082;28;20439;-67
2021/10/18 05:30:19;;;;;;;12.47;10.10;;;9.30;87.00;;;;;;5114034;28;20465;-67
2021/10/18 05:32:46;;;;;;;10.50;9.23;;;9.20;86.90;;;;;;5114010;28;20453;-67
2021/10/18 05:35:13;;;;;;;11.57;8.80;;;9.30;87.10;;;;;;5113716;28;20481;-67
2021/10/18 05:37:43;;;;;;;12.50;9.17;;;9.30;87.10;;;;;;5113682;28;20992;-67
2021/10/18 05:40:13;;;;;;;11.60;9.63;;;9.30;87.10;;;;;;5114099;28;20478;-67
2021/10/18 05:42:40;;;;;;;15.53;10.03;;;9.30;87.10;;;;;;5113839;28;20454;-67
2021/10/18 05:45:08;;;;;;;11.83;9.20;;;9.30;87.20;;;;;;5114151;28;20466;-67
2021/10/18 05:47:35;;;;;;;13.97;8.60;;;9.30;87.30;;;;;;5114028;28;20821;-67
2021/10/18 05:50:03;;;;;;;11.30;10.10;;;9.20;87.20;;;;;;5113921;28;20427;-67
2021/10/18 05:52:30;;;;;;;11.83;9.20;;;9.20;87.30;;;;;;5117800;28;20442;-67
2021/10/18 05:54:56;;;;;;;11.80;9.80;;;9.30;87.40;;;;;;5118317;28;20459;-67
2021/10/18 05:57:24;;;;;;;13.10;9.70;;;9.30;87.40;;;;;;5118055;28;20446;-67
2021/10/18 05:59:51;;;;;;;9.40;8.30;;;9.30;87.30;;;;;;5118028;27;20854;-67
2021/10/18 06:02:18;;;;;;;11.50;9.70;;;9.30;87.20;;;;;;5117986;27;20455;-67
2021/10/18 06:04:46;;;;;;;12.00;9.20;;;9.30;87.20;;;;;;5117898;28;20471;-67
2021/10/18 06:07:13;;;;;;;13.93;8.70;;;9.30;87.20;;;;;;5117788;28;20443;-67
2021/10/18 06:09:40;;;;;;;13.60;9.40;;;9.30;87.20;;;;;;5117839;28;20450;-67
2021/10/18 06:12:07;;;;;;;12.30;9.80;;;9.30;87.30;;;;;;5118014;27;20438;-67
2021/10/18 06:14:35;;;;;;;12.30;9.70;;;9.30;87.40;;;;;;5117721;28;20465;-68
2021/10/18 06:17:01;;;;;;;12.93;11.17;;;9.30;87.40;;;;;;5117419;28;20446;-67
2021/10/18 06:19:28;;;;;;;11.83;9.80;;;9.30;87.60;;;;;;5117689;28;20453;-67
2021/10/18 06:21:55;;;;;;;11.83;9.97;;;9.30;87.60;;;;;;5117610;28;20464;-67
2021/10/18 06:24:22;;;;;;;9.73;8.80;;;9.30;87.60;;;;;;5117159;28;20973;-67
2021/10/18 06:26:48;;;;;;;11.93;9.77;;;9.40;87.80;;;;;;5117570;28;20826;-68
2021/10/18 06:29:15;;;;;;;13.20;9.13;;;9.40;87.80;;;;;;5117427;28;20453;-68
2021/10/18 06:31:43;;;;;;;10.20;9.20;;;9.40;87.90;;;;;;5117061;28;20946;-67
2021/10/18 06:34:10;;;;;;;11.40;10.13;;;9.40;88.00;;;;;;5116952;27;20482;-68
2021/10/18 06:36:36;;;;;;;17.40;9.83;;;9.40;88.00;;;;;;5117051;28;20449;-67
2021/10/18 06:39:03;;;;;;;10.97;9.03;;;9.50;88.00;;;;;;5117265;28;20470;-67
2021/10/18 06:41:30;;;;;;;12.23;10.30;;;9.50;88.00;;;;;;5117109;28;20853;-67
2021/10/18 06:43:57;;;;;;;13.03;10.10;;;9.50;88.20;;;;;;5117122;28;20820;-68
2021/10/18 06:46:24;;;;;;;10.20;9.00;;;9.50;88.20;;;;;;5117241;28;20447;-68
2021/10/18 06:48:52;;;;;;;11.50;10.30;;;9.60;88.30;;;;;;5117383;28;20445;-67
2021/10/18 06:51:19;;;;;;;10.60;9.50;;;9.60;88.30;;;;;;5117305;28;20426;-68
2021/10/18 06:53:48;;;;;;;10.20;9.17;;;9.70;88.40;;;;;;5118228;28;20435;-68
2021/10/18 06:56:15;;;;;;;12.13;10.13;;;9.70;88.40;;;;;;5116910;28;20818;-67
2021/10/18 06:58:42;;;;;;;13.10;10.80;;;9.80;88.40;;;;;;5116798;28;20892;-67
2021/10/18 07:01:09;;;;;;;13.43;9.90;;;9.80;88.40;;;;;;5116916;28;20893;-67
2021/10/18 07:03:35;;;;;;;11.93;9.03;;;9.80;88.40;;;;;;5116057;27;20447;-67
2021/10/18 07:06:04;;;;;;;10.83;9.47;;;9.90;88.40;;;;;;5116872;28;20454;-67
2021/10/18 07:08:30;;;;;;;13.23;9.80;;;9.90;88.40;;;;;;5116877;28;20459;-67
2021/10/18 07:10:57;;;;;;;14.43;10.10;;;10.00;88.10;;;;;;5116673;28;20813;-67
2021/10/18 07:13:24;;;;;;;14.03;10.43;;;10.00;87.30;;;;;;5116284;28;20819;-67
2021/10/18 07:15:51;;;;;;;15.73;10.83;;;10.10;87.50;;;;;;5116521;28;20470;-68
2021/10/18 07:18:17;;;;;;;12.80;9.97;;;10.10;87.40;;;;;;5116544;28;20443;-67
2021/10/18 07:20:44;;;;;;;12.47;10.30;;;10.20;87.60;;;;;;5116102;28;20849;-67
2021/10/18 07:23:13;;;;;;;13.53;9.90;;;10.20;87.50;;;;;;5116413;28;20446;-67
2021/10/18 07:25:41;;;;;;;11.67;9.70;;;10.30;87.30;;;;;;5115968;28;20820;-67
2021/10/18 07:28:08;;;;;;;11.00;9.60;;;10.30;87.20;;;;;;5116564;28;20493;-67
2021/10/18 07:30:37;;;;;;;13.53;10.63;;;10.40;87.40;;;;;;5116006;28;20446;-67
2021/10/18 07:33:04;;;;;;;19.17;10.07;;;10.50;87.30;;;;;;5116199;28;20447;-69
2021/10/18 07:35:32;;;;;;;10.33;9.23;;;10.50;87.00;;;;;;5115696;28;20832;-68
2021/10/18 07:37:59;;;;;;;11.50;9.70;;;10.60;86.90;;;;;;5116139;28;20446;-68
2021/10/18 07:40:28;;;;;;;11.67;10.57;;;10.60;86.90;;;;;;5116182;28;20517;-68
2021/10/18 07:42:55;;;;;;;11.87;10.60;;;10.70;86.90;;;;;;5116070;28;20438;-67
2021/10/18 07:45:23;;;;;;;12.43;10.63;;;10.80;86.90;;;;;;5115898;28;20451;-67
2021/10/18 07:47:50;;;;;;;11.70;9.40;;;10.90;86.90;;;;;;5115978;28;20450;-67
2021/10/18 07:50:17;;;;;;;11.90;10.20;;;10.90;86.70;;;;;;5116450;28;20447;-67
2021/10/18 07:52:45;;;;;;;12.47;11.17;;;11.00;86.70;;;;;;5115866;28;20446;-67
2021/10/18 07:55:17;;;;;;;13.97;12.57;;;11.10;86.70;;;;;;5115714;28;20466;-67
2021/10/18 07:57:47;;;;;;;12.67;11.23;;;11.20;86.60;;;;;;5115814;28;20435;-67
2021/10/18 08:00:15;;;;;;;12.13;10.77;;;11.30;86.40;;;;;;5115684;27;20446;-67
2021/10/18 08:02:41;;;;;;;12.83;11.50;;;11.30;86.10;;;;;;5115562;28;20494;-67
2021/10/18 08:05:15;;;;;;;12.97;11.53;;;11.40;86.10;;;;;;5116308;28;20467;-67
2021/10/18 08:07:42;;;;;;;11.80;9.07;;;11.50;85.70;;;;;;5115601;28;20427;-67
2021/10/18 08:10:12;;;;;;;12.40;11.03;;;11.60;85.40;;;;;;5115526;28;20450;-67
2021/10/18 08:12:39;;;;;;;13.37;11.20;;;11.80;84.80;;;;;;5115490;28;20510;-67
2021/10/18 08:15:08;;;;;;;14.27;10.30;;;11.80;84.00;;;;;;5114270;27;20467;-67
2021/10/18 08:17:34;;;;;;;11.63;10.43;;;11.90;83.70;;;;;;5115632;28;20443;-67
2021/10/18 08:20:01;;;;;;;11.20;8.90;;;12.00;83.10;;;;;;5114970;28;20833;-67
2021/10/18 08:22:28;;;;;;;11.80;10.50;;;12.10;82.40;;;;;;5115190;28;20482;-67
2021/10/18 08:24:54;;;;;;;13.60;12.10;;;12.30;81.70;;;;;;5115145;28;20515;-67
2021/10/18 08:27:21;;;;;;;10.37;9.37;;;12.30;81.00;;;;;;5115021;28;20450;-67
2021/10/18 08:29:48;;;;;;;12.20;10.40;;;12.40;80.90;;;;;;5114916;28;20853;-67
2021/10/18 08:32:16;;;;;;;14.33;10.30;;;12.50;80.70;;;;;;5114907;28;20442;-67
2021/10/18 08:34:43;;;;;;;10.97;9.40;;;12.50;80.10;;;;;;5114694;28;20478;-67
2021/10/18 08:37:10;;;;;;;10.63;9.53;;;12.60;79.70;;;;;;5114813;28;20443;-67
2021/10/18 08:42:24;;;;;;;12.37;9.97;;;12.80;79.10;;;;;;5115329;28;20455;-67
2021/10/18 08:44:51;;;;;;;12.47;9.97;;;12.80;78.90;;;;;;5114445;28;20873;-67
2021/10/18 08:47:20;;;;;;;11.90;10.00;;;12.90;78.60;;;;;;5115545;28;20790;-67
2021/10/18 08:49:49;;;;;;;11.60;10.47;;;12.90;78.30;;;;;;5114741;28;21033;-67
2021/10/18 08:52:20;;;;;;;13.10;11.80;;;13.00;78.30;;;;;;5114197;28;20439;-67
2021/10/18 08:54:47;;;;;;;13.43;11.70;;;13.10;78.30;;;;;;5114586;28;20463;-67
2021/10/18 08:57:13;;;;;;;13.27;11.87;;;13.10;78.20;;;;;;5114478;28;20443;-67
2021/10/18 08:59:40;;;;;;;11.27;10.20;;;13.20;78.40;;;;;;5114422;28;20447;-67
2021/10/18 09:02:07;;;;;;;13.70;10.57;;;13.30;78.70;;;;;;5114374;28;20479;-67
2021/10/18 09:04:40;;;;;;;14.87;11.50;;;13.30;78.20;;;;;;5114316;28;20467;-67
2021/10/18 09:07:15;;;;;;;13.80;11.87;;;13.40;77.90;;;;;;5114566;28;20435;-67
2021/10/18 09:09:47;;;;;;;12.87;11.37;;;13.50;77.60;;;;;;5114513;28;20465;-67
2021/10/18 09:12:25;;;;;;;12.30;11.00;;;13.50;77.10;;;;;;5114400;27;20513;-67
2021/10/18 09:14:51;;;;;;;15.40;11.53;;;13.60;77.00;;;;;;5114439;28;20467;-67
2021/10/18 09:17:31;;;;;;;12.43;10.60;;;13.60;76.60;;;;;;5114277;27;20443;-67
2021/10/18 09:20:21;;;;;;;17.50;14.23;;;13.80;76.80;;;;;;5113980;28;20462;-67
2021/10/18 09:22:48;;;;;;;15.43;13.40;;;13.90;76.70;;;;;;5114327;28;20491;-67
2021/10/18 09:25:34;;;;;;;16.50;13.70;;;13.90;76.10;;;;;;5113835;28;20469;-67
2021/10/18 09:28:08;;;;;;;16.30;14.67;;;14.10;75.80;;;;;;5113881;28;20427;-67
2021/10/18 09:30:36;;;;;;;15.37;13.33;;;14.10;75.90;;;;;;5114271;28;20466;-67
2021/10/18 09:33:05;;;;;;;15.20;13.63;;;14.20;76.60;;;;;;5114386;28;20439;-67
2021/10/18 09:35:33;;;;;;;15.17;12.60;;;14.30;75.90;;;;;;5113891;28;20490;-67
2021/10/18 09:38:09;;;;;;;16.30;14.07;;;14.50;75.60;;;;;;5114087;28;20533;-67
2021/10/18 09:40:39;;;;;;;15.70;14.10;;;14.60;75.10;;;;;;5113711;28;20915;-67
2021/10/18 09:43:12;;;;;;;18.30;13.23;;;14.70;74.90;;;;;;5113899;28;20465;-67
2021/10/18 09:45:55;;;;;;;14.60;13.00;;;14.70;74.90;;;;;;5113917;28;20470;-67
2021/10/18 10:51:44;;;;;;;12.93;11.00;;;18.00;58.10;;;;;;5054439;28;20405;-67
2021/10/18 10:54:11;;;;;;;11.80;10.60;;;18.10;59.30;;;;;;5058493;27;20850;-67
2021/10/18 10:56:45;;;;;;;17.77;12.57;;;18.60;60.50;;;;;;5116699;28;20900;-67
2021/10/18 10:59:23;;;;;;;13.80;11.60;;;19.30;59.90;;;;;;5116931;28;20462;-67
2021/10/18 11:01:58;;;;;;;13.50;10.97;;;20.20;56.00;;;;;;5116861;28;20553;-67
2021/10/18 11:04:48;;;;;;;11.37;10.17;;;21.10;54.20;;;;;;5116406;28;20519;-67
2021/10/18 11:07:21;;;;;;;10.97;9.97;;;22.20;52.20;;;;;;5116512;28;20931;-67
2021/10/18 11:09:51;;;;;;;10.63;9.63;;;22.90;50.10;;;;;;5116776;28;20470;-67
2021/10/18 11:12:26;;;;;;;10.50;9.50;;;23.30;47.70;;;;;;5116792;28;20510;-67
2021/10/18 11:14:58;;;;;;;10.57;9.53;;;23.60;46.70;;;;;;5116798;28;20459;-67
2021/10/18 11:17:26;;;;;;;13.83;10.07;;;23.80;46.50;;;;;;5116737;28;20443;-67
2021/10/18 11:19:55;;;;;;;10.77;9.80;;;23.90;45.80;;;;;;5116554;28;20525;-67
2021/10/18 11:22:30;;;;;;;10.97;9.87;;;23.80;45.30;;;;;;5116345;28;20558;-67
2021/10/18 11:24:58;;;;;;;12.50;11.20;;;23.70;45.30;;;;;;5115965;28;20498;-67
2021/10/18 11:27:28;;;;;;;13.93;12.30;;;23.70;44.70;;;;;;5116315;28;20443;-67
2021/10/18 11:30:00;;;;;;;11.30;10.20;;;23.60;44.80;;;;;;5116022;28;20466;-67
2021/10/18 11:32:27;;;;;;;12.13;10.93;;;23.60;45.60;;;;;;5115999;28;20434;-67
2021/10/18 11:35:15;;;;;;;12.43;9.93;;;24.00;44.80;;;;;;5116002;28;20515;-67
2021/10/18 11:37:55;;;;;;;13.27;11.40;;;24.20;43.70;;;;;;5115947;28;20843;-67
2021/10/18 11:40:25;;;;;;;11.17;10.17;;;24.70;43.30;;;;;;5116096;28;20427;-67
2021/10/18 11:42:55;;;;;;;11.20;10.10;;;25.10;41.80;;;;;;5116037;28;20518;-67
2021/10/18 11:45:23;;;;;;;11.47;9.60;;;25.50;41.90;;;;;;5116741;28;20542;-67
2021/10/18 11:47:51;;;;;;;11.33;9.70;;;25.90;41.60;;;;;;5115718;28;20982;-67
2021/10/18 11:50:24;;;;;;;9.50;8.50;;;26.50;39.90;;;;;;5115736;28;20438;-68
2021/10/18 11:52:54;;;;;;;9.07;8.17;;;26.80;38.70;;;;;;5115929;28;20513;-68
2021/10/18 11:55:24;;;;;;;9.53;8.63;;;27.20;38.50;;;;;;5115745;28;20549;-67
2021/10/18 11:57:52;;;;;;;10.00;9.00;;;27.50;38.00;;;;;;5115789;28;20506;-68
2021/10/18 12:00:26;;;;;;;14.57;8.93;;;27.70;36.90;;;;;;5115734;28;20438;-68
2021/10/18 12:02:59;;;;;;;9.60;8.60;;;27.90;37.00;;;;;;5115868;28;20458;-68
2021/10/18 12:05:28;;;;;;;9.53;8.63;;;28.20;36.30;;;;;;5115544;27;20482;-68
2021/10/18 12:07:55;;;;;;;12.47;9.53;;;28.60;36.00;;;;;;5116372;28;20860;-68
2021/10/18 12:10:25;;;;;;;10.93;9.67;;;29.00;35.20;;;;;;5115713;28;20455;-68
2021/10/18 12:13:12;;;;;;;8.50;7.70;;;29.20;33.30;;;;;;5115199;28;20423;-68
2021/10/18 12:15:52;;;;;;;10.67;9.70;;;29.40;33.10;;;;;;5115093;27;20455;-68
2021/10/18 12:18:21;;;;;;;8.53;7.80;;;29.70;31.90;;;;;;5115055;28;20434;-68
2021/10/18 12:20:50;;;;;;;10.70;9.57;;;29.90;31.80;;;;;;5115373;28;20435;-68
2021/10/18 12:23:23;;;;;;;10.53;9.63;;;30.10;31.90;;;;;;5115186;28;20478;-68
2021/10/18 12:26:03;;;;;;;9.77;8.80;;;30.00;31.00;;;;;;5115233;28;20470;-68
2021/10/18 12:28:40;;;;;;;10.97;9.90;;;29.80;30.90;;;;;;5115223;28;20439;-68
2021/10/18 12:31:24;;;;;;;9.80;8.90;;;29.40;31.40;;;;;;5115165;28;20431;-68
2021/10/18 12:34:00;;;;;;;9.17;8.27;;;29.10;32.30;;;;;;5114781;28;20458;-68
2021/10/18 12:36:28;;;;;;;10.00;9.03;;;29.00;33.20;;;;;;5114737;28;20434;-68
2021/10/18 12:38:56;;;;;;;11.50;10.00;;;29.10;32.60;;;;;;5114689;28;20897;-68
2021/10/18 12:41:23;;;;;;;9.00;8.20;;;29.10;32.80;;;;;;5115222;28;20427;-68
2021/10/18 12:43:51;;;;;;;9.00;8.10;;;28.80;32.90;;;;;;5114439;28;20574;-68
2021/10/18 12:46:21;;;;;;;8.43;7.73;;;28.60;33.50;;;;;;5114558;28;20423;-68
2021/10/18 12:49:00;;;;;;;12.07;9.37;;;28.30;34.40;;;;;;5114483;28;20939;-68
2021/10/18 12:51:41;;;;;;;9.57;8.77;;;27.90;34.50;;;;;;5114749;28;20427;-68
2021/10/18 12:54:24;;;;;;;10.60;9.60;;;27.50;35.70;;;;;;5114585;28;20463;-68
2021/10/18 12:57:03;;;;;;;9.70;8.80;;;27.10;36.50;;;;;;5114414;28;20451;-68
2021/10/18 12:59:31;;;;;;;9.50;8.70;;;26.70;37.20;;;;;;5114615;28;20514;-68
2021/10/18 13:02:25;;;;;;;12.10;9.27;;;26.50;38.00;;;;;;5113677;28;20427;-68
2021/10/18 13:05:08;;;;;;;10.10;9.20;;;26.20;38.70;;;;;;5114488;28;20467;-68
2021/10/18 13:07:36;;;;;;;12.20;11.10;;;25.90;39.40;;;;;;5114587;28;20442;-68
2021/10/18 13:10:04;;;;;;;10.13;9.10;;;25.40;39.40;;;;;;5115324;28;20450;-67
2021/10/18 13:12:31;;;;;;;9.37;8.40;;;25.00;40.20;;;;;;5114317;28;20429;-67
2021/10/18 13:14:58;;;;;;;10.03;9.13;;;24.60;41.10;;;;;;5114257;28;20502;-68
2021/10/18 13:17:27;;;;;;;8.50;7.80;;;24.10;41.80;;;;;;5114400;28;20514;-67
2021/10/18 13:19:55;;;;;;;8.30;7.50;;;23.80;42.80;;;;;;5114298;28;20430;-67
2021/10/18 13:22:23;;;;;;;9.70;8.60;;;23.60;43.70;;;;;;5113873;28;21008;-67
2021/10/18 13:24:50;;;;;;;8.60;7.80;;;23.40;44.30;;;;;;5114162;28;20467;-67
2021/10/18 13:27:17;;;;;;;10.20;8.10;;;23.10;44.60;;;;;;5114170;28;20517;-67
2021/10/18 13:29:44;;;;;;;9.83;8.47;;;23.00;45.20;;;;;;5113859;28;20427;-67
2021/10/18 13:32:12;;;;;;;10.40;9.33;;;22.90;45.40;;;;;;5114094;28;20438;-67
2021/10/18 13:34:42;;;;;;;9.43;8.60;;;22.70;46.00;;;;;;5113776;28;20540;-67
2021/10/18 13:37:09;;;;;;;10.60;9.60;;;22.60;46.10;;;;;;5114039;28;20427;-67
2021/10/18 13:39:37;;;;;;;9.73;8.73;;;22.40;46.40;;;;;;5114092;28;20488;-67
2021/10/18 13:42:04;;;;;;;10.60;9.47;;;22.20;46.50;;;;;;5113580;28;20457;-67
2021/10/18 13:44:32;;;;;;;14.60;10.10;;;22.00;46.90;;;;;;5113978;28;20887;-67
2021/10/18 13:46:59;;;;;;;10.03;9.07;;;21.80;47.40;;;;;;5113740;28;20423;-67
2021/10/18 13:49:25;;;;;;;11.13;10.03;;;21.60;48.40;;;;;;5114004;28;20434;-67
2021/10/18 13:51:54;;;;;;;10.40;8.90;;;21.60;48.00;;;;;;5113926;28;20882;-67
2021/10/18 13:54:21;;;;;;;7.80;7.03;;;21.50;47.90;;;;;;5113541;28;20866;-67